Terminal Aerodrome Forecast
Issued by NWS

Home | Current Version | Previous Version | Text Only | Print | Product List | Glossary On
Versions: 1 2 3 4 5 6 7 8 9 10 11 12 13 14 15 16 17 18 19
000
FTUS43 KDLH 030525
TAFBRD
TAF
KBRD 030525Z 0306/0406 28006KT P6SM SKC
     FM031400 31011KT P6SM SCT035
     FM031700 33013G20KT P6SM SCT040
     FM040100 31006KT P6SM SCT090=

USA.gov is the U.S. government's official web portal to all federal, state and local government web resources and services.